Robinson, IL

2:27 PM CDT on June 27, 2017 (GMT -0500)
Robinson Municipal

Weather History for KRSV - October, 2012

Change the Weather History Date:

Monday, October 1, 2012

  Actual Average (KLWV) Record (KLWV)
Temperature  
Mean Temperature 58 °F -  
Max Temperature 63 °F 73 °F 87 °F (2007)
Min Temperature 53 °F 47 °F 36 °F (1993)
Degree Days  
Heating Degree Days 7    
Growing Degree Days 8 (Base 50)    
Moisture  
Dew Point 52 °F    
Average Humidity 82    
Maximum Humidity 99    
Minimum Humidity 65    
Precipitation  
Precipitation 0.09 in - - ()
Sea Level Pressure  
Sea Level Pressure 29.79 in    
Wind  
Wind Speed 7 mph (North)    
Max Wind Speed 13 mph    
Max Gust Speed 17 mph    
Visibility 10 miles    
Events Rain    
Averages and records for this station are not official NWS values.
T = Trace of Precipitation, MM = Missing Value Source: NWS Daily Summary

Daily Weather History Graph

Daily Weather History Graph

Search for Another Location

Airport or City:

Trip Planner

Search our weather history database for the weather conditions in past years. The results will help you decide how hot, cold, wet, or windy it might be!

Date:

Astronomy

Oct. 01, 2012 Rise Set
Actual Time 6:47 AM CDT 6:32 PM CDT
Civil Twilight 6:20 AM CDT 6:59 PM CDT
Nautical Twilight 5:49 AM CDT 7:29 PM CDT
Astronomical Twilight 5:18 AM CDT 8:01 PM CDT
Moon 7:10 PM CDT (10/1) 8:14 AM CDT (10/1)
Length of Visible Light 12h 38m
Length of Day
11h 45m
Full, 98% of the Moon is Illuminated
Oct 1
Full
Oct 8
Last Quarter
Oct 15
New
Oct 21
First Quarter
Oct 29
Full

Hourly Weather History & Observations

Time (CDT) Temp. Dew Point Humidity Pressure Visibility Wind Dir Wind Speed Gust Speed Precip Events Conditions
12:15 AM 56.7 °F 50.2 °F 79% 29.88 in 10.0 mi North 3.5 mph - N/A   Clear
12:35 AM 56.3 °F 50.2 °F 80% 29.87 in 10.0 mi North 5.8 mph - N/A   Clear
12:55 AM 56.3 °F 50.0 °F 79% 29.87 in 10.0 mi NNE 3.5 mph - N/A   Clear
1:15 AM 56.5 °F 49.3 °F 77% 29.86 in 10.0 mi NNE 4.6 mph - N/A   Clear
1:35 AM 57.7 °F 48.6 °F 71% 29.87 in 10.0 mi NE 6.9 mph - N/A   Clear
2:15 AM 56.7 °F 48.4 °F 74% 29.86 in 10.0 mi North 3.5 mph - N/A   Clear
2:35 AM 55.4 °F 48.6 °F 78% 29.84 in 10.0 mi North 4.6 mph - N/A   Clear
3:15 AM 55.4 °F 48.4 °F 77% 29.84 in 10.0 mi NNE 5.8 mph - N/A   Clear
3:35 AM 54.9 °F 48.4 °F 79% 29.84 in 10.0 mi NNE 5.8 mph - N/A   Clear
3:55 AM 54.0 °F 48.4 °F 81% 29.84 in 10.0 mi North 5.8 mph - N/A   Clear
4:15 AM 54.1 °F 48.7 °F 82% 29.83 in 10.0 mi North 5.8 mph - N/A   Clear
4:35 AM 54.0 °F 48.4 °F 81% 29.83 in 10.0 mi North 6.9 mph - N/A   Clear
4:55 AM 54.0 °F 48.4 °F 81% 29.82 in 10.0 mi North 6.9 mph - N/A   Clear
5:15 AM 53.2 °F 48.4 °F 84% 29.83 in 10.0 mi North 5.8 mph - N/A   Clear
5:35 AM 53.6 °F 48.7 °F 84% 29.84 in 10.0 mi North 5.8 mph - N/A   Clear
5:55 AM 53.6 °F 48.6 °F 83% 29.83 in 10.0 mi North 5.8 mph - N/A   Clear
6:15 AM 53.6 °F 48.6 °F 83% 29.83 in 10.0 mi North 4.6 mph - N/A   Clear
6:35 AM 53.6 °F 48.9 °F 84% 29.84 in 10.0 mi North 4.6 mph - N/A   Clear
7:15 AM 54.0 °F 48.9 °F 83% 29.82 in 10.0 mi North 5.8 mph - N/A   Clear
7:35 AM 54.5 °F 48.7 °F 81% 29.82 in 10.0 mi North 6.9 mph - N/A   Clear
7:55 AM 55.4 °F 48.9 °F 79% 29.83 in 10.0 mi North 5.8 mph - N/A   Clear
8:15 AM 55.6 °F 49.5 °F 80% 29.83 in 10.0 mi North 5.8 mph - N/A   Clear
8:35 AM 56.3 °F 49.5 °F 78% 29.82 in 10.0 mi NNE 6.9 mph - N/A   Clear
9:35 AM 57.2 °F 50.0 °F 77% 29.82 in 10.0 mi NNE 6.9 mph - N/A   Clear
9:55 AM 57.2 °F 50.0 °F 77% 29.82 in 10.0 mi North 8.1 mph - N/A   Clear
10:15 AM 57.6 °F 50.0 °F 76% 29.83 in 10.0 mi NNE 6.9 mph - N/A   Scattered Clouds
10:35 AM 58.1 °F 50.7 °F 76% 29.82 in 10.0 mi North 6.9 mph - N/A   Mostly Cloudy
10:55 AM 58.5 °F 50.5 °F 75% 29.82 in 10.0 mi NNE 8.1 mph - N/A   Overcast
11:15 AM 59.4 °F 51.1 °F 74% 29.81 in 10.0 mi NNE 10.4 mph - N/A   Mostly Cloudy
11:35 AM 59.0 °F 52.0 °F 78% 29.80 in 10.0 mi NNE 10.4 mph - N/A Rain Light Rain
11:55 AM 60.4 °F 51.8 °F 73% 29.80 in 10.0 mi NNE 10.4 mph - N/A   Scattered Clouds
12:15 PM 61.5 °F 52.0 °F 71% 29.80 in 10.0 mi NNE 10.4 mph 17.3 mph N/A   Scattered Clouds
12:35 PM 62.6 °F 52.0 °F 68% 29.79 in 10.0 mi NNE 12.7 mph - N/A   Scattered Clouds
12:55 PM 62.8 °F 51.6 °F 67% 29.78 in 10.0 mi North 12.7 mph - N/A   Clear
1:15 PM 63.7 °F 52.3 °F 67% 29.77 in 10.0 mi NNE 9.2 mph 16.1 mph N/A   Clear
1:35 PM 63.9 °F 52.0 °F 65% 29.76 in 10.0 mi NNE 11.5 mph - N/A   Mostly Cloudy
1:55 PM 63.7 °F 52.7 °F 67% 29.76 in 10.0 mi NE 11.5 mph - N/A   Overcast
2:15 PM 63.3 °F 53.1 °F 69% 29.75 in 10.0 mi NNE 10.4 mph - N/A Rain Light Rain
2:35 PM 62.2 °F 55.0 °F 77% 29.75 in 10.0 mi NNE 6.9 mph - N/A Rain Light Rain
3:15 PM 61.5 °F 55.4 °F 80% 29.74 in 10.0 mi North 6.9 mph - N/A Rain Light Rain
3:35 PM 61.0 °F 56.3 °F 85% 29.73 in 10.0 mi North 11.5 mph - N/A Rain Light Rain
4:15 PM 60.1 °F 57.6 °F 91% 29.72 in 10.0 mi North 10.4 mph - N/A Rain Light Rain
4:35 PM 60.1 °F 56.7 °F 88% 29.72 in 10.0 mi North 10.4 mph - N/A Rain Light Rain
4:55 PM 60.1 °F 56.1 °F 87% 29.73 in 10.0 mi North 9.2 mph - N/A   Light Drizzle
5:15 PM 60.4 °F 55.6 °F 84% 29.74 in 10.0 mi North 10.4 mph - N/A   Overcast
5:35 PM 60.8 °F 55.2 °F 82% 29.74 in 10.0 mi North 8.1 mph - N/A   Overcast
5:55 PM 60.4 °F 54.7 °F 81% 29.74 in 10.0 mi North 9.2 mph - N/A Rain Light Rain
6:15 PM 59.9 °F 54.9 °F 83% 29.74 in 10.0 mi NNW 9.2 mph - 0.01 in Rain Light Rain
6:35 PM 59.9 °F 54.9 °F 83% 29.73 in 10.0 mi North 11.5 mph - 0.01 in   Light Drizzle
6:55 PM 60.4 °F 54.1 °F 80% 29.73 in 10.0 mi North 10.4 mph 17.3 mph 0.01 in   Overcast
7:15 PM 60.1 °F 54.5 °F 82% 29.73 in 10.0 mi North 9.2 mph - N/A Rain Light Rain
7:35 PM 60.6 °F 54.0 °F 79% 29.73 in 10.0 mi NNE 10.4 mph - N/A   Overcast
7:55 PM 59.4 °F 54.7 °F 84% 29.74 in 10.0 mi North 9.2 mph - N/A Rain Light Rain
8:15 PM 59.2 °F 54.7 °F 85% 29.75 in 10.0 mi North 9.2 mph - 0.01 in Rain Rain
8:35 PM 58.1 °F 56.3 °F 94% 29.75 in 10.0 mi NNW 8.1 mph - 0.06 in Rain Rain
8:55 PM 58.1 °F 57.2 °F 97% 29.74 in 10.0 mi NNW 9.2 mph - 0.08 in Rain Light Rain
9:15 PM 57.7 °F 57.2 °F 98% 29.75 in 10.0 mi North 6.9 mph - N/A Rain Rain
9:35 PM 57.6 °F 57.2 °F 99% 29.75 in 10.0 mi North 6.9 mph - N/A Rain Light Rain
9:55 PM 57.6 °F 56.8 °F 97% 29.76 in 10.0 mi NNW 6.9 mph - N/A   Overcast
10:15 PM 57.2 °F 56.7 °F 98% 29.75 in 10.0 mi NNW 5.8 mph - N/A   Overcast
10:35 PM 57.2 °F 56.7 °F 98% 29.76 in 10.0 mi North 6.9 mph - N/A   Light Drizzle
11:15 PM 57.2 °F 56.3 °F 97% 29.75 in 10.0 mi NNW 8.1 mph - N/A   Overcast
11:35 PM 57.2 °F 56.3 °F 97% 29.73 in 10.0 mi North 11.5 mph - N/A   Overcast
11:55 PM 57.2 °F 55.9 °F 96% 29.73 in 10.0 mi North 8.1 mph - N/A   Overcast